Time;durP1;ratioP1;P1;durP2;ratioP2;P2;SDS_P1;SDS_P2;PMS_P1;PMS_P2;Temp;Humidity;BMP_temperature;BMP_pressure;BME280_temperature;BME280_humidity;BME280_pressure;Samples;Min_cycle;Max_cycle;Signal;HPM_P1;HPM_P2
2021/12/23 00:02:13;;;;;;;30.05;14.10;;;;;;;-1.59;93.06;101651.00;4963508;28;20406;-72
2021/12/23 00:04:38;;;;;;;31.02;15.63;;;;;;;-1.69;93.84;101637.94;4944336;28;20058;-72
2021/12/23 00:07:03;;;;;;;34.65;15.70;;;;;;;-1.63;93.48;101636.97;4956104;28;20546;-72
2021/12/23 00:09:56;;;;;;;35.05;16.10;;;;;;;-1.78;94.37;101627.53;4939901;28;20434;-73
2021/12/23 00:12:16;;;;;;;38.33;16.52;;;;;;;-1.62;93.11;101611.53;4959839;28;20542;-72
2021/12/23 00:14:42;;;;;;;31.17;16.02;;;;;;;-1.62;93.57;101625.56;4943744;28;20038;-72
2021/12/23 00:17:25;;;;;;;37.35;18.85;;;;;;;-1.65;93.36;101607.16;4935312;28;20037;-72
2021/12/23 00:25:16;;;;;;;42.15;15.60;;;;;;;-1.45;92.25;101625.31;4955613;28;20082;-73
2021/12/23 00:27:41;;;;;;;38.55;18.15;;;;;;;-1.59;93.47;101611.50;4941046;28;20042;-72
2021/12/23 00:30:07;;;;;;;35.50;17.13;;;;;;;-1.63;93.55;101586.94;4939469;28;20720;-72
2021/12/23 00:32:32;;;;;;;35.08;19.33;;;;;;;-1.45;93.07;101600.72;4937230;28;20070;-72
2021/12/23 00:34:58;;;;;;;39.38;17.58;;;;;;;-1.51;92.17;101591.16;4941253;28;20427;-72
2021/12/23 00:37:23;;;;;;;39.80;18.80;;;;;;;-1.52;92.49;101585.03;4943010;28;20034;-72
2021/12/23 00:39:48;;;;;;;42.08;21.02;;;;;;;-1.52;92.32;101590.31;4958749;28;20058;-72
2021/12/23 00:42:14;;;;;;;32.83;14.65;;;;;;;-1.52;92.86;101570.97;4939616;28;20043;-72
2021/12/23 00:44:45;;;;;;;37.05;15.88;;;;;;;-1.57;92.69;101589.50;4926766;28;20130;-72
2021/12/23 00:47:10;;;;;;;33.33;14.45;;;;;;;-1.68;93.47;101573.84;4926336;28;20041;-73
2021/12/23 00:49:35;;;;;;;45.92;16.52;;;;;;;-1.62;92.74;101583.41;4939975;28;20034;-72
2021/12/23 00:52:03;;;;;;;33.10;14.35;;;;;;;-1.63;92.59;101586.09;4939773;28;20394;-73
2021/12/23 00:54:28;;;;;;;34.70;18.33;;;;;;;-1.57;92.11;101594.75;4960453;28;20027;-73
2021/12/23 00:56:53;;;;;;;29.27;14.15;;;;;;;-1.54;92.29;101597.34;4936926;28;20036;-72
2021/12/23 00:59:19;;;;;;;36.53;16.92;;;;;;;-1.42;92.28;101601.56;4942793;28;20265;-73
2021/12/23 01:01:46;;;;;;;34.65;15.75;;;;;;;-1.34;91.70;101601.44;4945394;28;20030;-73
2021/12/23 01:04:12;;;;;;;33.13;15.98;;;;;;;-1.36;92.15;101590.94;4946004;28;20106;-72
2021/12/23 01:06:37;;;;;;;26.05;13.20;;;;;;;-1.72;93.01;101566.88;4960431;28;20386;-73
2021/12/23 01:09:03;;;;;;;34.05;17.08;;;;;;;-1.59;93.05;101567.56;4948141;28;20027;-73
2021/12/23 01:11:28;;;;;;;32.97;15.07;;;;;;;-1.57;93.02;101557.88;4943456;28;20034;-72
2021/12/23 01:14:57;;;;;;;34.33;17.85;;;;;;;-1.49;92.53;101551.63;4963669;28;20042;-73
2021/12/23 01:19:24;;;;;;;37.20;15.13;;;;;;;-1.49;92.72;101559.53;4951993;28;20030;-72
2021/12/23 01:21:50;;;;;;;38.75;17.58;;;;;;;-1.59;93.08;101549.13;4946775;28;20027;-72
2021/12/23 01:24:15;;;;;;;30.25;15.43;;;;;;;-1.60;92.71;101567.59;4944536;28;20161;-73
2021/12/23 01:26:41;;;;;;;33.75;16.13;;;;;;;-1.59;92.79;101564.94;4947225;28;20052;-72
2021/12/23 01:29:07;;;;;;;37.97;18.77;;;;;;;-1.40;92.41;101580.44;4934716;28;20137;-73
2021/12/23 01:31:34;;;;;;;35.45;16.30;;;;;;;-1.55;93.22;101584.19;4964111;28;20093;-73
2021/12/23 01:34:00;;;;;;;34.08;16.42;;;;;;;-1.48;92.98;101577.09;4931569;28;20031;-72
2021/12/23 01:36:26;;;;;;;35.67;18.15;;;;;;;-1.40;93.16;101562.00;4944077;28;20499;-73
2021/12/23 01:38:52;;;;;;;41.22;18.02;;;;;;;-1.27;92.52;101553.00;4963510;28;20073;-72
2021/12/23 01:41:17;;;;;;;28.00;15.32;;;;;;;-1.38;92.95;101540.03;4955504;28;20038;-73
2021/12/23 01:43:43;;;;;;;45.38;22.15;;;;;;;-1.24;92.50;101550.34;4941798;28;20037;-72
2021/12/23 01:46:08;;;;;;;37.63;18.92;;;;;;;-1.23;91.71;101538.00;4963938;28;20490;-72
2021/12/23 01:48:34;;;;;;;36.50;16.88;;;;;;;-1.44;93.17;101521.69;4960900;28;20066;-72
2021/12/23 01:51:00;;;;;;;34.25;17.88;;;;;;;-1.46;92.55;101527.88;4940700;28;20223;-72
2021/12/23 01:53:25;;;;;;;42.78;20.10;;;;;;;-1.19;91.57;101529.16;4944614;28;20069;-72
2021/12/23 01:55:51;;;;;;;39.67;16.92;;;;;;;-1.18;91.54;101530.91;4946225;28;20475;-73
2021/12/23 01:58:18;;;;;;;37.95;18.25;;;;;;;-1.34;92.37;101524.16;4945744;28;20070;-72
2021/12/23 02:00:46;;;;;;;42.95;17.88;;;;;;;-1.45;93.10;101541.00;4930173;28;20026;-73
2021/12/23 02:03:12;;;;;;;35.67;17.10;;;;;;;-1.34;91.81;101518.91;4941011;28;20327;-72
2021/12/23 02:05:38;;;;;;;41.45;17.70;;;;;;;-1.60;92.35;101507.03;4929601;28;20391;-72
2021/12/23 02:08:04;;;;;;;40.35;19.55;;;;;;;-1.28;91.66;101530.19;4939903;28;20106;-72
2021/12/23 02:10:29;;;;;;;41.15;19.60;;;;;;;-1.53;92.61;101506.91;4956041;28;20518;-72
2021/12/23 02:12:55;;;;;;;40.95;20.58;;;;;;;-1.52;92.72;101508.66;4928410;28;20026;-72
2021/12/23 02:15:21;;;;;;;39.42;17.70;;;;;;;-1.40;91.14;101478.59;4940506;28;20027;-72
2021/12/23 02:17:48;;;;;;;32.83;16.00;;;;;;;-1.58;92.09;101477.13;4945055;28;20072;-72
2021/12/23 02:20:17;;;;;;;35.75;16.38;;;;;;;-1.66;91.98;101474.63;4930076;28;20029;-72
2021/12/23 02:22:43;;;;;;;35.72;15.98;;;;;;;-1.63;92.40;101476.34;4930431;28;20423;-72
2021/12/23 02:25:09;;;;;;;46.63;21.50;;;;;;;-1.63;91.96;101486.03;4944851;28;20030;-72
2021/12/23 02:27:34;;;;;;;39.85;17.13;;;;;;;-1.63;92.52;101483.38;4942363;28;20023;-72
2021/12/23 02:30:01;;;;;;;47.10;20.02;;;;;;;-1.73;92.83;101488.78;4943124;28;20037;-72
2021/12/23 02:32:27;;;;;;;45.40;22.88;;;;;;;-1.76;92.65;101461.66;4959841;28;20026;-72
2021/12/23 02:34:52;;;;;;;39.65;19.13;;;;;;;-1.62;91.37;101459.66;4959082;28;20384;-72
2021/12/23 02:37:17;;;;;;;41.80;19.83;;;;;;;-1.77;91.45;101454.66;4958281;28;20438;-72
2021/12/23 02:39:43;;;;;;;40.85;21.15;;;;;;;-1.79;90.85;101448.53;4945680;28;20518;-72
2021/12/23 02:42:09;;;;;;;35.80;15.88;;;;;;;-1.87;90.95;101451.31;4929136;28;20281;-72
2021/12/23 02:44:34;;;;;;;36.75;16.38;;;;;;;-1.91;91.91;101458.34;4944731;28;20035;-73
2021/12/23 02:47:00;;;;;;;40.47;19.83;;;;;;;-2.03;92.06;101456.78;4941221;28;20030;-72
2021/12/23 02:49:25;;;;;;;43.67;19.08;;;;;;;-2.06;92.07;101459.47;4931805;28;20038;-72
2021/12/23 02:51:51;;;;;;;40.45;19.58;;;;;;;-1.88;92.12;101484.63;4960923;28;20034;-72
2021/12/23 02:54:17;;;;;;;42.08;20.63;;;;;;;-1.95;92.45;101469.81;4944454;28;20034;-72
2021/12/23 02:56:42;;;;;;;40.25;19.48;;;;;;;-2.02;92.16;101461.16;4942244;28;20034;-72
2021/12/23 02:59:07;;;;;;;40.90;19.25;;;;;;;-1.94;93.19;101486.50;4964969;28;20058;-72
2021/12/23 03:01:33;;;;;;;38.40;17.25;;;;;;;-2.04;92.30;101448.94;4943469;28;20023;-72
2021/12/23 03:03:59;;;;;;;40.72;20.02;;;;;;;-2.20;92.88;101457.03;4941756;28;20498;-72
2021/12/23 03:06:25;;;;;;;35.10;15.60;;;;;;;-2.11;92.16;101458.66;4945713;28;20426;-72
2021/12/23 03:08:59;;;;;;;38.08;17.67;;;;;;;-2.16;91.74;101440.31;4946927;28;20391;-72
2021/12/23 03:11:25;;;;;;;;;;;;;;;-1.99;91.84;101463.75;4961629;28;20494;-72
2021/12/23 03:13:51;;;;;;;40.03;18.40;;;;;;;-1.80;90.75;101460.81;4948505;28;19925;-72
2021/12/23 03:16:21;;;;;;;34.88;17.02;;;;;;;-2.14;91.28;101446.44;4962044;28;20022;-72
2021/12/23 03:18:46;;;;;;;38.53;16.88;;;;;;;-2.26;92.16;101450.13;4943603;28;20421;-72
2021/12/23 03:21:12;;;;;;;42.25;19.30;;;;;;;-2.42;92.78;101438.94;4966607;28;20272;-72
2021/12/23 03:23:37;;;;;;;39.45;16.35;;;;;;;-2.32;92.55;101434.41;4962124;28;20073;-72
2021/12/23 03:26:04;;;;;;;40.70;19.17;;;;;;;-2.33;92.65;101431.81;4958567;28;20047;-72
2021/12/23 03:28:29;;;;;;;51.35;19.02;;;;;;;-2.41;92.57;101419.63;4961227;28;20453;-72
2021/12/23 03:30:54;;;;;;;38.75;16.95;;;;;;;-2.48;92.63;101422.38;4944355;28;20317;-72
2021/12/23 03:33:20;;;;;;;41.25;17.42;;;;;;;-2.56;93.09;101418.09;4961201;28;20031;-72
2021/12/23 03:35:46;;;;;;;35.65;15.75;;;;;;;-2.53;93.19;101432.09;4958932;28;20125;-72
2021/12/23 03:38:12;;;;;;;44.17;17.95;;;;;;;-2.55;93.51;101426.88;4928901;28;20031;-72
2021/12/23 03:40:38;;;;;;;39.70;17.63;;;;;;;-2.60;93.76;101405.88;4943998;28;20046;-72
2021/12/23 03:43:03;;;;;;;41.70;18.65;;;;;;;-2.67;94.18;101412.13;4958890;28;20035;-72
2021/12/23 03:45:29;;;;;;;37.97;16.33;;;;;;;-2.81;94.97;101408.78;4957897;28;20034;-72
2021/12/23 03:47:54;;;;;;;48.38;21.48;;;;;;;-2.68;93.76;101377.97;4938029;28;20034;-72
2021/12/23 03:50:22;;;;;;;42.95;21.10;;;;;;;-2.72;94.40;101375.38;4947853;28;20498;-72
2021/12/23 03:52:48;;;;;;;43.67;20.02;;;;;;;-2.94;95.10;101374.81;4938914;28;20131;-71
2021/12/23 03:55:15;;;;;;;43.50;19.20;;;;;;;-2.89;94.55;101365.06;4944312;28;20035;-71
2021/12/23 03:57:40;;;;;;;49.17;25.35;;;;;;;-2.61;93.91;101364.69;4923191;28;20058;-72
2021/12/23 04:00:08;;;;;;;46.75;23.73;;;;;;;-2.81;94.11;101341.34;4946604;28;20122;-72
2021/12/23 04:02:34;;;;;;;49.67;25.23;;;;;;;-2.63;93.16;101342.81;4939624;28;20037;-72
2021/12/23 04:04:59;;;;;;;34.60;15.55;;;;;;;-2.58;93.18;101338.38;4944369;28;20027;-72
2021/12/23 04:07:24;;;;;;;46.75;20.80;;;;;;;-2.49;92.61;101337.34;4940509;28;20372;-71
2021/12/23 04:09:50;;;;;;;45.35;21.60;;;;;;;-2.48;91.93;101327.72;4960217;28;20030;-72
2021/12/23 04:12:15;;;;;;;50.75;23.20;;;;;;;-2.46;93.28;101342.56;4938049;28;20125;-72
2021/12/23 04:14:40;;;;;;;48.15;21.42;;;;;;;-2.83;93.67;101319.47;4959130;28;20043;-72
2021/12/23 04:17:06;;;;;;;55.13;24.95;;;;;;;-2.51;93.72;101340.91;4942968;28;20031;-72
2021/12/23 04:19:32;;;;;;;47.53;24.40;;;;;;;-2.45;93.09;101319.78;4940219;28;20093;-72
2021/12/23 04:21:58;;;;;;;47.22;23.40;;;;;;;-2.42;93.71;101327.63;4938513;28;20031;-71
2021/12/23 04:24:24;;;;;;;47.67;23.65;;;;;;;-2.24;92.94;101323.81;4925011;28;20041;-72
2021/12/23 04:26:50;;;;;;;45.30;22.70;;;;;;;-2.27;92.09;101323.88;4959034;28;20031;-71
2021/12/23 04:29:15;;;;;;;48.90;25.27;;;;;;;-2.14;91.43;101321.91;4955560;28;20027;-71
2021/12/23 04:31:41;;;;;;;39.55;18.15;;;;;;;-2.24;92.13;101331.69;4954797;28;20494;-72
2021/12/23 04:34:06;;;;;;;48.28;23.58;;;;;;;-2.30;92.46;101324.78;4942093;28;20037;-72
2021/12/23 04:36:32;;;;;;;42.95;22.13;;;;;;;-2.24;92.21;101322.94;4956213;28;20063;-71
2021/12/23 04:38:58;;;;;;;43.85;22.60;;;;;;;-2.22;92.28;101314.13;4955776;28;20066;-71
2021/12/23 04:41:24;;;;;;;48.25;22.10;;;;;;;-2.06;91.68;101332.28;4940838;28;20379;-71
2021/12/23 04:43:50;;;;;;;45.58;19.85;;;;;;;-2.24;91.63;101328.22;4939547;28;20157;-72
2021/12/23 04:46:15;;;;;;;39.13;16.80;;;;;;;-2.35;92.49;101313.47;4956778;28;20026;-72
2021/12/23 04:48:40;;;;;;;39.17;19.77;;;;;;;-2.25;92.39;101319.44;4955082;28;20042;-71
2021/12/23 04:51:06;;;;;;;41.20;19.80;;;;;;;-2.33;92.89;101316.09;4964355;28;20023;-71
2021/12/23 04:53:32;;;;;;;44.53;19.75;;;;;;;-2.14;92.29;101301.72;4943619;28;20038;-72
2021/12/23 04:55:57;;;;;;;48.00;24.90;;;;;;;-2.24;91.84;101280.84;4961636;28;20045;-72
2021/12/23 04:58:23;;;;;;;43.53;20.52;;;;;;;-2.23;92.22;101312.38;4938569;28;20045;-72
2021/12/23 05:00:50;;;;;;;46.80;20.60;;;;;;;-2.09;91.87;101303.41;4959954;28;20045;-72
2021/12/23 05:03:21;;;;;;;46.85;24.45;;;;;;;-1.97;91.20;101311.06;4963300;28;20081;-71
2021/12/23 05:05:46;;;;;;;44.25;25.38;;;;;;;-1.98;91.94;101309.31;4943956;28;20035;-71
2021/12/23 05:08:12;;;;;;;54.10;24.10;;;;;;;-2.14;92.96;101327.16;4956967;28;20410;-72
2021/12/23 05:10:38;;;;;;;43.92;20.45;;;;;;;-2.33;93.02;101309.03;4962319;28;20034;-71
2021/12/23 05:13:04;;;;;;;47.60;22.85;;;;;;;-2.11;92.91;101309.56;4944242;28;20027;-72
2021/12/23 05:15:29;;;;;;;44.03;19.85;;;;;;;-2.17;92.65;101296.50;4942730;28;20031;-72
2021/12/23 05:17:55;;;;;;;46.30;22.55;;;;;;;-2.06;92.99;101298.09;4945583;28;20023;-72
2021/12/23 05:20:20;;;;;;;39.30;16.60;;;;;;;-2.31;94.76;101291.47;4959703;28;20049;-72
2021/12/23 05:22:46;;;;;;;50.15;21.40;;;;;;;-2.22;93.15;101263.28;4943379;28;20560;-72
2021/12/23 05:25:12;;;;;;;44.38;20.98;;;;;;;-1.98;93.07;101265.47;4960898;28;20038;-72
2021/12/23 05:27:38;;;;;;;42.33;19.55;;;;;;;-1.85;92.49;101266.09;4958189;28;20035;-72
2021/12/23 05:30:05;;;;;;;46.13;19.83;;;;;;;-2.13;94.43;101250.81;4926685;28;20483;-72
2021/12/23 05:32:31;;;;;;;54.03;22.55;;;;;;;-2.01;93.86;101260.25;4944505;28;20170;-72
2021/12/23 05:34:56;;;;;;;45.90;19.42;;;;;;;-1.85;93.00;101273.13;4953499;28;20044;-72
2021/12/23 05:37:21;;;;;;;42.17;18.90;;;;;;;-2.15;93.68;101283.34;4938872;28;20031;-72
2021/12/23 05:39:47;;;;;;;40.88;20.23;;;;;;;-2.18;93.82;101244.78;4956545;28;20428;-72
2021/12/23 05:42:12;;;;;;;41.28;19.42;;;;;;;-2.10;94.05;101260.41;4961078;28;20483;-72
2021/12/23 05:44:37;;;;;;;45.97;21.83;;;;;;;-2.20;94.59;101243.94;4954105;28;20061;-72
2021/12/23 05:47:03;;;;;;;49.17;23.52;;;;;;;-1.93;94.04;101267.16;4957826;28;20550;-72
2021/12/23 05:49:28;;;;;;;55.53;23.38;;;;;;;-1.78;92.66;101260.72;4944219;28;20552;-72
2021/12/23 05:51:54;;;;;;;44.65;20.98;;;;;;;-2.03;93.88;101274.34;4927276;28;20109;-72
2021/12/23 05:54:19;;;;;;;42.83;21.27;;;;;;;-2.20;94.20;101238.66;4963077;28;20046;-71
2021/12/23 05:56:44;;;;;;;36.80;17.95;;;;;;;-2.21;94.42;101251.88;4926506;28;20027;-72
2021/12/23 05:59:10;;;;;;;43.67;19.85;;;;;;;-2.00;93.82;101253.25;4946940;28;20039;-72
2021/12/23 06:01:35;;;;;;;43.10;20.02;;;;;;;-1.99;94.09;101253.22;4963112;28;20134;-72
2021/12/23 06:04:00;;;;;;;44.53;20.45;;;;;;;-1.98;93.67;101254.06;4935786;28;20160;-72
2021/12/23 06:06:26;;;;;;;33.90;14.55;;;;;;;-2.28;94.36;101251.13;4929601;28;20132;-72
2021/12/23 06:08:51;;;;;;;42.08;18.40;;;;;;;-2.26;94.82;101273.00;4942178;28;20081;-72
2021/12/23 06:11:16;;;;;;;38.78;17.30;;;;;;;-2.26;94.43;101251.97;4947905;28;20026;-72
2021/12/23 06:13:42;;;;;;;40.42;19.02;;;;;;;-2.25;94.47;101232.63;4928458;28;20058;-72
2021/12/23 06:16:07;;;;;;;45.90;20.83;;;;;;;-2.29;94.83;101212.56;4942653;28;20030;-71
2021/12/23 06:18:33;;;;;;;52.40;21.95;;;;;;;-2.05;94.23;101239.31;4942318;28;20423;-72
2021/12/23 06:20:58;;;;;;;48.08;22.55;;;;;;;-2.34;95.86;101236.28;4942456;28;20039;-72
2021/12/23 06:23:25;;;;;;;37.00;16.63;;;;;;;-2.28;95.36;101233.56;4923863;28;20031;-71
2021/12/23 06:25:50;;;;;;;50.33;24.77;;;;;;;-2.13;95.15;101221.03;4929532;28;20033;-72
2021/12/23 06:28:15;;;;;;;55.85;25.23;;;;;;;-2.21;94.54;101213.25;4942733;28;20023;-72
2021/12/23 06:30:41;;;;;;;53.63;21.73;;;;;;;-2.24;94.99;101207.19;4944954;28;20436;-72
2021/12/23 06:33:06;;;;;;;47.33;18.92;;;;;;;-2.31;95.42;101202.03;4927561;28;20034;-71
2021/12/23 06:35:32;;;;;;;52.70;24.80;;;;;;;-1.99;95.35;101204.97;4961351;28;20323;-72
2021/12/23 06:38:02;;;;;;;52.33;25.25;;;;;;;-2.09;95.40;101200.78;4943224;28;20038;-71
2021/12/23 06:40:27;;;;;;;55.47;27.40;;;;;;;-2.11;95.05;101199.03;4957194;28;20483;-71
2021/12/23 06:42:53;;;;;;;53.47;23.20;;;;;;;-2.05;95.50;101198.06;4958512;28;20026;-72
2021/12/23 06:45:18;;;;;;;43.55;17.45;;;;;;;-1.92;94.26;101201.31;4961379;28;20027;-72
2021/12/23 06:47:44;;;;;;;48.42;21.83;;;;;;;-2.08;95.05;101181.47;4944209;28;20448;-72
2021/12/23 06:50:10;;;;;;;41.58;18.08;;;;;;;-2.05;94.98;101202.47;4942350;28;20086;-72
2021/12/23 06:52:37;;;;;;;51.30;22.15;;;;;;;-2.07;95.11;101197.22;4940862;28;20143;-72
2021/12/23 06:55:04;;;;;;;57.60;26.75;;;;;;;-1.78;94.66;101208.94;4946629;28;20054;-72
2021/12/23 06:57:30;;;;;;;42.70;18.35;;;;;;;-1.76;93.43;101188.69;4966601;28;20195;-72
2021/12/23 06:59:55;;;;;;;46.90;21.58;;;;;;;-1.99;94.30;101192.69;4928375;28;20183;-72
2021/12/23 07:02:20;;;;;;;49.08;21.92;;;;;;;-1.94;95.39;101197.84;4964711;28;20061;-72
2021/12/23 07:04:46;;;;;;;46.28;21.83;;;;;;;-1.96;94.86;101197.00;4948362;28;20054;-72
2021/12/23 07:07:19;;;;;;;51.60;22.38;;;;;;;-1.92;94.05;101192.56;4948615;28;20037;-72
2021/12/23 07:09:44;;;;;;;57.38;25.58;;;;;;;-1.57;93.45;101207.63;4942849;28;20057;-72
2021/12/23 07:12:11;;;;;;;47.50;21.20;;;;;;;-1.62;93.00;101201.56;4962885;28;20503;-72
2021/12/23 07:14:38;;;;;;;45.67;20.23;;;;;;;-1.90;94.73;101198.66;4950559;28;20026;-72
2021/12/23 07:17:04;;;;;;;47.25;20.75;;;;;;;-1.87;95.57;101223.16;4962040;28;20034;-72
2021/12/23 07:19:29;;;;;;;45.28;18.15;;;;;;;-2.03;96.78;101219.94;4932428;28;20050;-72
2021/12/23 07:21:55;;;;;;;55.60;22.02;;;;;;;-1.88;95.12;101207.41;4965027;28;20503;-71
2021/12/23 07:24:20;;;;;;;53.00;24.88;;;;;;;-1.64;94.16;101213.91;4945529;28;20050;-72
2021/12/23 07:26:46;;;;;;;56.83;24.83;;;;;;;-1.39;93.63;101209.00;4948512;28;20027;-72
2021/12/23 07:29:12;;;;;;;52.65;23.27;;;;;;;-1.53;93.87;101200.50;4945924;28;20116;-72
2021/12/23 07:31:37;;;;;;;48.60;19.38;;;;;;;-1.59;94.00;101196.25;4968267;28;20099;-72
2021/12/23 07:34:02;;;;;;;47.70;19.50;;;;;;;-1.76;94.99;101196.59;4966500;28;20038;-72
2021/12/23 07:36:28;;;;;;;40.20;17.52;;;;;;;-1.63;94.33;101191.09;4970888;28;20038;-72
2021/12/23 07:38:56;;;;;;;43.47;18.33;;;;;;;-1.62;93.91;101175.25;4946558;28;20023;-72
2021/12/23 07:41:22;;;;;;;44.97;20.45;;;;;;;-1.59;94.84;101192.75;4957729;28;20035;-72
2021/12/23 07:43:59;;;;;;;53.75;22.20;;;;;;;-1.62;94.09;101204.22;4931602;28;20097;-72
2021/12/23 07:46:28;;;;;;;52.28;24.42;;;;;;;-1.41;94.02;101212.53;4960865;28;20045;-72
2021/12/23 07:48:55;;;;;;;53.75;22.02;;;;;;;-1.70;94.49;101182.44;4944513;28;20383;-72
2021/12/23 07:51:20;;;;;;;44.50;18.88;;;;;;;-1.69;95.56;101181.53;4945322;28;20068;-72
2021/12/23 07:53:46;;;;;;;47.03;20.92;;;;;;;-1.73;94.05;101187.78;4945447;28;20034;-72
2021/12/23 07:56:11;;;;;;;44.08;16.70;;;;;;;-1.67;94.73;101214.84;4938790;28;20467;-73
2021/12/23 07:58:37;;;;;;;39.00;15.35;;;;;;;-1.74;94.90;101213.22;4960389;28;20031;-72
2021/12/23 08:01:02;;;;;;;44.60;19.17;;;;;;;-1.72;95.13;101202.69;4960124;28;20059;-73
2021/12/23 08:03:27;;;;;;;59.17;23.58;;;;;;;-1.41;94.82;101196.72;4961883;28;20483;-73
2021/12/23 08:05:53;;;;;;;44.22;20.40;;;;;;;-1.32;93.23;101212.34;4959317;28;20069;-72
2021/12/23 08:08:19;;;;;;;43.22;17.95;;;;;;;-1.45;94.30;101198.59;4959497;28;20026;-72
2021/12/23 08:10:45;;;;;;;38.50;17.48;;;;;;;-1.48;95.38;101189.91;4934053;28;20029;-73
2021/12/23 08:13:10;;;;;;;54.95;23.38;;;;;;;-1.42;93.97;101180.09;4942811;28;20027;-73
2021/12/23 08:15:36;;;;;;;46.30;21.02;;;;;;;-1.53;96.00;101190.84;4926832;28;20030;-73
2021/12/23 08:18:01;;;;;;;42.35;19.65;;;;;;;-1.45;95.30;101185.41;4944903;28;21537;-73
2021/12/23 08:20:28;;;;;;;51.08;21.38;;;;;;;-1.41;95.00;101178.31;4927268;28;20030;-73
2021/12/23 08:22:53;;;;;;;50.45;21.52;;;;;;;-1.48;96.11;101189.91;4961894;28;20023;-72
2021/12/23 08:25:18;;;;;;;45.58;19.92;;;;;;;-1.57;95.56;101180.41;4924651;28;20391;-73
2021/12/23 08:27:44;;;;;;;49.33;21.27;;;;;;;-1.32;95.05;101193.06;4928345;28;20042;-73
2021/12/23 08:30:12;;;;;;;42.97;19.27;;;;;;;-1.52;96.80;101170.63;4942822;28;20418;-73
2021/12/23 08:32:38;;;;;;;59.15;25.33;;;;;;;-1.15;95.80;101193.53;4943828;28;20296;-73
2021/12/23 08:35:04;;;;;;;47.95;19.35;;;;;;;-1.40;94.81;101169.50;4922938;28;20137;-72
2021/12/23 08:37:29;;;;;;;45.03;19.48;;;;;;;-1.32;95.68;101186.00;4961508;28;20038;-72
2021/12/23 08:39:55;;;;;;;48.90;22.33;;;;;;;-1.10;94.49;101167.06;4941533;28;20038;-73
2021/12/23 08:42:21;;;;;;;47.17;20.30;;;;;;;-1.11;94.37;101166.19;4930993;28;20078;-73
2021/12/23 08:44:46;;;;;;;50.08;20.10;;;;;;;-1.17;95.10;101160.19;4958583;28;20117;-73
2021/12/23 08:47:13;;;;;;;49.50;20.75;;;;;;;-1.15;94.39;101154.00;4961383;28;20090;-73
2021/12/23 08:49:40;;;;;;;52.28;23.05;;;;;;;-1.15;95.08;101151.38;4942693;28;22167;-72
2021/12/23 08:52:05;;;;;;;44.65;17.10;;;;;;;-0.97;94.54;101155.31;4944130;28;20057;-72
2021/12/23 08:54:31;;;;;;;46.63;21.42;;;;;;;-1.14;95.26;101144.31;4939805;28;20561;-72
2021/12/23 08:56:56;;;;;;;52.88;20.58;;;;;;;-1.01;94.47;101139.59;4933562;28;20528;-72
2021/12/23 08:59:21;;;;;;;51.83;23.05;;;;;;;-1.00;95.33;101138.69;4956609;28;20383;-72
2021/12/23 09:01:48;;;;;;;52.67;22.55;;;;;;;-1.01;94.93;101147.50;4939567;28;20033;-73
2021/12/23 09:04:13;;;;;;;54.00;21.02;;;;;;;-1.07;95.45;101130.09;4926377;28;20034;-72
2021/12/23 09:06:38;;;;;;;52.92;24.92;;;;;;;-0.87;95.78;101124.31;4964928;28;20035;-72
2021/12/23 09:09:04;;;;;;;51.90;23.42;;;;;;;-1.01;95.32;101121.16;4940837;28;20042;-72
2021/12/23 09:11:30;;;;;;;55.40;23.30;;;;;;;-0.82;94.50;101127.72;4927422;28;20058;-72
2021/12/23 09:13:55;;;;;;;56.00;25.85;;;;;;;-0.60;93.92;101129.78;4962258;28;20577;-73
2021/12/23 09:16:20;;;;;;;49.38;21.08;;;;;;;-0.81;93.80;101111.00;4939025;28;20027;-73
2021/12/23 09:18:46;;;;;;;55.53;25.42;;;;;;;-0.87;94.53;101100.59;4939929;28;20117;-73
2021/12/23 09:21:12;;;;;;;59.70;27.30;;;;;;;-0.59;95.21;101117.44;4944033;28;20034;-72
2021/12/23 09:23:39;;;;;;;55.10;22.27;;;;;;;-0.55;94.14;101108.56;4932391;28;20045;-72
2021/12/23 09:26:09;;;;;;;54.88;23.70;;;;;;;-0.28;91.99;101095.50;4961283;28;20592;-72
2021/12/23 09:28:56;;;;;;;49.08;21.83;;;;;;;-0.38;92.49;101114.22;4947609;28;20114;-72
2021/12/23 09:34:06;;;;;;;;;;;;;;;-0.17;91.73;101111.91;4950053;28;20493;-71
2021/12/23 09:36:32;;;;;;;59.63;24.05;;;;;;;-0.42;93.56;101106.44;4963763;28;19914;-72
2021/12/23 09:38:57;;;;;;;58.63;30.67;;;;;;;-0.02;91.43;101111.44;4962668;28;20396;-72
2021/12/23 09:41:23;;;;;;;53.60;25.52;;;;;;;-0.32;92.20;101089.47;4963513;28;20551;-72
2021/12/23 09:43:49;;;;;;;48.50;24.55;;;;;;;-0.21;91.38;101092.63;4931597;28;20049;-72
2021/12/23 09:46:20;;;;;;;62.15;33.35;;;;;;;0.04;90.02;101083.16;4939423;28;20046;-72
2021/12/23 09:48:46;;;;;;;46.65;18.55;;;;;;;-0.38;92.38;101073.78;4945437;28;20062;-72
2021/12/23 09:51:14;;;;;;;54.75;26.23;;;;;;;-0.02;90.82;101079.78;4957113;28;20484;-72
2021/12/23 09:53:42;;;;;;;50.97;19.88;;;;;;;-0.21;92.49;101070.66;4945426;28;20058;-72
2021/12/23 09:56:08;;;;;;;57.53;27.42;;;;;;;-0.24;91.26;101058.41;4942499;28;20530;-72
2021/12/23 09:58:33;;;;;;;62.00;26.50;;;;;;;-0.25;92.46;101061.09;4947834;28;20031;-72
2021/12/23 10:00:59;;;;;;;59.35;28.35;;;;;;;-0.03;90.99;101070.13;4943114;28;20106;-72
2021/12/23 10:03:26;;;;;;;62.97;29.83;;;;;;;0.01;91.63;101049.75;4962777;28;20114;-72
2021/12/23 10:05:51;;;;;;;53.35;25.73;;;;;;;0.00;90.66;101063.91;4946103;28;20054;-72
2021/12/23 10:08:17;;;;;;;66.18;34.42;;;;;;;0.13;90.36;101059.13;4959578;28;20695;-72
2021/12/23 10:10:51;;;;;;;41.20;17.20;;;;;;;0.00;90.86;101055.97;4964848;28;20034;-72
2021/12/23 10:32:57;;;;;;;52.00;22.55;;;;;;;-0.07;92.13;101020.13;4933755;28;20290;-71
2021/12/23 10:38:17;;;;;;;66.18;35.42;;;;;;;0.30;91.86;101000.44;4959108;28;20399;-71
2021/12/23 10:40:46;;;;;;;55.35;25.73;;;;;;;0.49;90.49;100995.44;4964538;28;20037;-71
2021/12/23 10:43:28;;;;;;;62.55;26.88;;;;;;;0.32;91.19;101000.41;4948123;28;20034;-71
2021/12/23 10:46:02;;;;;;;61.63;30.63;;;;;;;0.71;90.20;100987.66;4959226;28;20038;-72
2021/12/23 10:48:31;;;;;;;61.95;25.98;;;;;;;0.42;92.24;100985.97;4948962;28;20034;-71
2021/12/23 10:51:02;;;;;;;53.63;21.92;;;;;;;0.82;90.60;100974.06;4926992;28;21223;-71
2021/12/23 10:59:08;;;;;;;60.30;27.98;;;;;;;0.89;90.27;100959.72;4958890;28;20041;-71
2021/12/23 11:01:38;;;;;;;61.00;29.80;;;;;;;0.93;90.21;100963.13;4959220;28;20795;-72
2021/12/23 11:04:06;;;;;;;58.08;24.52;;;;;;;0.63;92.45;100950.06;4946971;28;20110;-71
2021/12/23 11:06:38;;;;;;;60.28;26.50;;;;;;;0.97;90.04;100950.63;4961064;28;20034;-71
2021/12/23 11:09:30;;;;;;;55.15;23.83;;;;;;;0.74;91.38;100945.25;4943156;28;20065;-70
2021/12/23 11:28:48;;;;;;;67.78;32.83;;;;;;;1.61;88.41;100906.81;4953795;28;20034;-71
2021/12/23 11:36:54;;;;;;;58.97;26.38;;;;;;;1.06;91.58;100889.50;4963010;28;20038;-70
2021/12/23 11:41:51;;;;;;;53.05;26.30;;;;;;;1.17;90.72;100868.81;4964030;28;20150;-69
2021/12/23 11:44:16;;;;;;;;;;;;;;;1.53;90.00;100875.38;4954506;28;20038;-69
2021/12/23 11:46:53;;;;;;;58.35;33.35;;;;;;;1.61;88.96;100838.00;4960357;28;19922;-68
2021/12/23 11:49:19;;;;;;;51.10;27.33;;;;;;;1.43;89.91;100864.28;4943034;28;20031;-69
2021/12/23 11:54:37;;;;;;;49.95;21.05;;;;;;;1.29;90.89;100863.94;4954166;28;20038;-70
2021/12/23 11:57:06;;;;;;;47.20;23.23;;;;;;;1.52;89.34;100862.19;4957958;28;20037;-70
2021/12/23 11:59:34;;;;;;;57.17;25.42;;;;;;;1.50;89.17;100841.09;4942611;28;20030;-70
2021/12/23 12:01:59;;;;;;;58.20;31.20;;;;;;;1.71;88.58;100812.91;4938065;28;20570;-70
2021/12/23 12:04:29;;;;;;;52.25;25.10;;;;;;;1.76;88.90;100831.22;4942530;28;20043;-70
2021/12/23 12:06:56;;;;;;;56.20;28.10;;;;;;;1.76;89.37;100837.38;4960183;28;20497;-70
2021/12/23 12:09:31;;;;;;;50.88;21.55;;;;;;;1.87;89.07;100821.03;4943426;28;20026;-70
2021/12/23 12:11:59;;;;;;;56.63;30.55;;;;;;;2.18;88.01;100797.69;4941423;28;20030;-70
2021/12/23 12:14:41;;;;;;;43.63;18.50;;;;;;;2.27;86.67;100807.03;4954937;28;20079;-70
2021/12/23 12:17:24;;;;;;;46.80;21.70;;;;;;;2.64;86.48;100792.16;4960971;28;20073;-70